Time;durP1;ratioP1;P1;durP2;ratioP2;P2;SDS_P1;SDS_P2;PMS_P1;PMS_P2;Temp;Humidity;BMP_temperature;BMP_pressure;BME280_temperature;BME280_humidity;BME280_pressure;Samples;Min_cycle;Max_cycle;Signal;HPM_P1;HPM_P2
2022/09/13 00:00:54;;;;;;;13.00;10.30;;;;;;;17.48;84.92;100866.91;4998361;28;20097;-84
2022/09/13 00:03:20;;;;;;;13.80;10.20;;;;;;;17.54;84.35;100863.16;4999228;28;20529;-84
2022/09/13 00:05:46;;;;;;;12.87;9.77;;;;;;;17.59;83.52;100858.81;4998080;28;20044;-83
2022/09/13 00:08:12;;;;;;;14.40;9.30;;;;;;;17.67;82.35;100867.38;4997682;28;20038;-83
2022/09/13 00:10:40;;;;;;;13.90;9.53;;;;;;;17.65;83.67;100866.84;4996022;28;20045;-83
2022/09/13 00:13:08;;;;;;;12.77;9.10;;;;;;;17.65;83.15;100864.09;4998940;28;20045;-83
2022/09/13 00:15:34;;;;;;;13.67;9.13;;;;;;;17.69;83.64;100867.13;4998030;28;20907;-85
2022/09/13 00:18:00;;;;;;;15.50;9.10;;;;;;;17.69;83.27;100865.22;4998596;28;20034;-84
2022/09/13 00:20:25;;;;;;;12.57;8.83;;;;;;;17.67;83.63;100861.91;4997867;28;20038;-84
2022/09/13 00:22:51;;;;;;;15.77;9.23;;;;;;;17.68;84.14;100862.75;4998274;28;20396;-84
2022/09/13 00:25:17;;;;;;;13.37;9.50;;;;;;;17.68;83.93;100857.28;4997107;28;20037;-84
2022/09/13 00:27:43;;;;;;;11.73;9.60;;;;;;;17.67;84.31;100856.44;4998293;28;20092;-84
2022/09/13 00:30:11;;;;;;;12.77;9.40;;;;;;;17.65;84.38;100847.66;4998113;28;20041;-83
2022/09/13 00:32:36;;;;;;;12.50;9.43;;;;;;;17.68;83.92;100849.06;4997700;28;20045;-83
2022/09/13 00:35:04;;;;;;;14.13;9.87;;;;;;;17.70;83.09;100849.59;4998130;28;20037;-85
2022/09/13 00:37:30;;;;;;;12.63;9.40;;;;;;;17.64;84.30;100840.50;4997608;28;20038;-84
2022/09/13 00:39:55;;;;;;;14.23;9.40;;;;;;;17.63;83.99;100833.38;4998003;28;20646;-84
2022/09/13 00:42:25;;;;;;;11.30;8.83;;;;;;;17.66;83.43;100832.03;4997721;28;20485;-84
2022/09/13 00:45:02;;;;;;;12.27;9.27;;;;;;;17.64;83.24;100829.56;4996036;28;20525;-84
2022/09/13 00:47:50;;;;;;;13.87;9.23;;;;;;;17.63;83.86;100833.38;4997290;28;20053;-83
2022/09/13 00:50:21;;;;;;;17.27;9.60;;;;;;;17.63;83.88;100833.38;4997160;28;20763;-84
2022/09/13 00:52:53;;;;;;;13.70;9.33;;;;;;;17.63;84.25;100822.41;4996077;28;20041;-84
2022/09/13 00:55:26;;;;;;;12.03;9.43;;;;;;;17.62;83.94;100828.97;4995927;28;20038;-84
2022/09/13 00:57:56;;;;;;;14.30;9.97;;;;;;;17.65;83.17;100820.25;4972157;28;20135;-83
2022/09/13 01:00:21;;;;;;;16.63;9.90;;;;;;;17.61;83.40;100804.59;4997343;28;20544;-83
2022/09/13 01:02:53;;;;;;;13.27;9.73;;;;;;;17.60;83.21;100809.25;4997698;28;20617;-84
2022/09/13 01:05:23;;;;;;;13.70;9.40;;;;;;;17.61;84.34;100819.13;4997508;28;20128;-84
2022/09/13 01:07:50;;;;;;;13.90;10.00;;;;;;;17.61;84.13;100821.88;4996551;28;20084;-83
2022/09/13 01:10:15;;;;;;;14.57;9.57;;;;;;;17.59;83.68;100815.00;4997105;28;20257;-84
2022/09/13 01:12:57;;;;;;;12.30;9.23;;;;;;;17.60;83.92;100811.13;4996392;28;20430;-84
2022/09/13 01:15:23;;;;;;;14.20;9.60;;;;;;;17.54;83.66;100807.53;4997445;28;20030;-84
2022/09/13 01:17:50;;;;;;;13.53;9.37;;;;;;;17.55;84.55;100818.22;4996643;28;20069;-83
2022/09/13 01:20:16;;;;;;;12.77;9.13;;;;;;;17.54;84.48;100821.22;4997031;28;20041;-84
2022/09/13 01:22:56;;;;;;;13.83;9.40;;;;;;;17.57;84.51;100822.63;4997343;28;20033;-84
2022/09/13 01:25:50;;;;;;;15.03;9.87;;;;;;;17.58;84.03;100814.16;4996718;28;20041;-84
2022/09/13 01:28:31;;;;;;;15.57;10.35;;;;;;;17.60;83.40;100825.69;4996466;28;20036;-84
2022/09/13 01:31:07;;;;;;;15.20;9.83;;;;;;;17.57;83.86;100823.47;4996534;28;20048;-84
2022/09/13 01:34:23;;;;;;;14.90;9.90;;;;;;;17.59;84.06;100818.53;4997371;28;20510;-83
2022/09/13 01:36:58;;;;;;;15.30;10.57;;;;;;;17.57;85.39;100815.25;4996655;28;20255;-85
2022/09/13 01:39:53;;;;;;;13.43;9.50;;;;;;;17.53;84.99;100805.91;4996384;28;20504;-85
2022/09/13 01:42:27;;;;;;;14.77;9.30;;;;;;;17.54;84.92;100821.22;4996630;28;20034;-85
2022/09/13 01:44:58;;;;;;;;;;;;;;;17.64;84.38;100807.63;4997649;28;20117;-85
2022/09/13 01:47:30;;;;;;;15.93;9.70;;;;;;;17.52;86.32;100813.28;4997170;28;20249;-84
2022/09/13 01:50:18;;;;;;;14.23;10.13;;;;;;;17.51;86.86;100810.78;4997000;28;20038;-84
2022/09/13 01:52:55;;;;;;;13.77;10.20;;;;;;;17.46;88.11;100813.47;4996982;28;20041;-85
2022/09/13 01:55:38;;;;;;;12.60;9.30;;;;;;;17.41;87.18;100808.78;4996767;28;20038;-84
2022/09/13 01:58:07;;;;;;;14.27;9.53;;;;;;;17.45;87.07;100811.81;4996538;28;20402;-85
2022/09/13 02:00:44;;;;;;;12.67;9.83;;;;;;;17.47;86.42;100815.94;4995805;28;20030;-85
2022/09/13 02:03:17;;;;;;;14.47;9.50;;;;;;;17.46;85.93;100811.59;4996079;28;20030;-84
2022/09/13 02:05:53;;;;;;;13.63;10.10;;;;;;;17.50;85.78;100812.72;4997338;28;20037;-85
2022/09/13 02:08:30;;;;;;;14.03;9.57;;;;;;;17.50;85.90;100806.41;4996510;28;20037;-84
2022/09/13 02:11:03;;;;;;;13.53;10.03;;;;;;;17.48;85.51;100809.41;4996264;28;20390;-84
2022/09/13 02:13:34;;;;;;;13.93;9.90;;;;;;;17.47;86.14;100810.47;4996093;28;20476;-85
2022/09/13 02:16:07;;;;;;;14.27;9.80;;;;;;;17.44;88.84;100799.22;4996923;28;20120;-85
2022/09/13 02:18:40;;;;;;;13.67;10.13;;;;;;;17.45;89.13;100803.59;4996686;28;20040;-84
2022/09/13 02:21:20;;;;;;;13.23;10.30;;;;;;;17.38;88.46;100798.38;4995846;28;20116;-84
2022/09/13 02:23:59;;;;;;;13.33;9.70;;;;;;;17.41;89.31;100805.22;4995908;28;20038;-84
2022/09/13 02:26:28;;;;;;;15.07;9.87;;;;;;;17.33;89.47;100814.72;4995937;28;21414;-84
2022/09/13 02:28:56;;;;;;;13.10;9.60;;;;;;;17.32;89.74;100810.34;4996344;28;21443;-85
2022/09/13 02:31:38;;;;;;;14.77;10.20;;;;;;;17.35;87.93;100807.91;4995998;28;20096;-84
2022/09/13 02:34:11;;;;;;;15.73;10.50;;;;;;;17.35;87.03;100810.66;4996152;28;20030;-84
2022/09/13 02:36:40;;;;;;;15.03;10.50;;;;;;;17.40;85.48;100800.84;4995495;28;20042;-85
2022/09/13 02:39:16;;;;;;;14.10;10.97;;;;;;;17.42;85.08;100801.38;4995934;28;20144;-84
2022/09/13 02:41:51;;;;;;;15.33;10.20;;;;;;;17.43;84.60;100800.31;4995164;28;20378;-84
2022/09/13 02:44:45;;;;;;;13.30;9.97;;;;;;;17.45;84.26;100789.91;4995672;28;20049;-85
2022/09/13 02:47:15;;;;;;;13.38;9.85;;;;;;;17.55;83.71;100804.53;4995282;28;20513;-86
2022/09/13 02:50:03;;;;;;;14.80;10.60;;;;;;;17.59;83.25;100804.84;4995901;28;20517;-84
2022/09/13 02:52:41;;;;;;;14.90;10.13;;;;;;;17.59;84.17;100815.00;4995886;28;20120;-85
2022/09/13 02:55:23;;;;;;;15.77;10.20;;;;;;;17.57;83.95;100809.78;4995616;28;20046;-84
2022/09/13 02:58:17;;;;;;;15.00;10.03;;;;;;;17.62;82.78;100815.28;4995502;28;20034;-84
2022/09/13 03:00:43;;;;;;;13.90;9.82;;;;;;;17.63;84.41;100825.16;4967454;28;20510;-85
2022/09/13 03:03:12;;;;;;;13.50;10.27;;;;;;;17.62;84.14;100831.72;4995147;28;20118;-84
2022/09/13 03:05:37;;;;;;;13.97;9.77;;;;;;;17.64;83.79;100835.03;4995652;28;20048;-84
2022/09/13 03:08:06;;;;;;;15.23;10.40;;;;;;;17.62;83.68;100830.91;4995246;28;20401;-85
2022/09/13 03:10:57;;;;;;;13.17;10.23;;;;;;;17.63;83.08;100838.03;4995452;28;20054;-84
2022/09/13 03:13:35;;;;;;;13.63;10.00;;;;;;;17.61;84.44;100829.25;4995322;28;20061;-83
2022/09/13 03:16:13;;;;;;;15.27;10.00;;;;;;;17.55;84.92;100831.09;4995568;28;20080;-84
2022/09/13 03:19:32;;;;;;;14.50;10.83;;;;;;;17.53;84.36;100812.19;4995002;28;20037;-84
2022/09/13 03:22:17;;;;;;;14.77;10.83;;;;;;;17.46;85.35;100814.31;4914658;29;20576;-84
2022/09/13 03:24:48;;;;;;;12.33;10.60;;;;;;;17.41;87.06;100821.63;4914850;29;20111;-83
2022/09/13 03:27:56;;;;;;;16.03;10.97;;;;;;;17.40;86.47;100812.59;4973438;28;20049;-84
2022/09/13 03:30:21;;;;;;;15.07;10.20;;;;;;;17.36;88.37;100815.03;4995376;28;20360;-83
2022/09/13 03:32:55;;;;;;;13.67;10.20;;;;;;;17.31;87.97;100822.38;4995625;28;20042;-85
2022/09/13 03:38:39;;;;;;;15.00;9.90;;;;;;;17.24;88.09;100805.31;4995135;28;20077;-83
2022/09/13 03:41:06;;;;;;;14.55;9.43;;;;;;;17.22;87.82;100800.09;4995267;28;20036;-84
2022/09/13 03:43:39;;;;;;;16.30;10.07;;;;;;;17.21;87.77;100804.72;4994579;28;20045;-84
2022/09/13 03:46:16;;;;;;;13.53;10.30;;;;;;;17.19;88.72;100806.91;4995903;28;20045;-85
2022/09/13 03:48:42;;;;;;;14.33;9.63;;;;;;;17.20;88.76;100808.59;4995260;28;20042;-84
2022/09/13 03:51:10;;;;;;;13.70;9.97;;;;;;;17.15;88.89;100794.81;4995595;28;20044;-83
2022/09/13 03:53:42;;;;;;;14.93;10.43;;;;;;;17.12;88.95;100794.50;4995100;28;20065;-84
2022/09/13 03:56:19;;;;;;;13.40;9.77;;;;;;;17.10;88.75;100797.50;4995572;28;20037;-83
2022/09/13 03:58:45;;;;;;;13.60;10.30;;;;;;;17.13;88.87;100802.47;4995298;28;20071;-85
2022/09/13 04:01:11;;;;;;;13.70;10.10;;;;;;;17.14;89.66;100803.31;4995180;28;20041;-84
2022/09/13 04:03:37;;;;;;;13.63;9.87;;;;;;;17.12;89.51;100803.56;4996704;28;20137;-85
2022/09/13 04:06:03;;;;;;;14.73;10.57;;;;;;;17.08;88.71;100804.31;4998372;28;20042;-85
2022/09/13 04:08:30;;;;;;;14.93;10.53;;;;;;;17.01;90.87;100816.31;4996710;28;20046;-84
2022/09/13 04:10:55;;;;;;;15.73;10.73;;;;;;;16.93;90.87;100816.75;4998416;28;20038;-83
2022/09/13 04:13:21;;;;;;;14.37;10.83;;;;;;;17.01;89.74;100824.53;4998239;28;20054;-83
2022/09/13 04:15:48;;;;;;;14.60;10.33;;;;;;;17.02;90.10;100822.59;4998330;28;20034;-84
2022/09/13 04:18:13;;;;;;;14.23;10.87;;;;;;;17.02;90.77;100826.16;4997211;28;20037;-85
2022/09/13 04:20:38;;;;;;;13.90;10.93;;;;;;;16.97;89.74;100831.59;4998536;28;20541;-83
2022/09/13 04:23:04;;;;;;;14.17;11.23;;;;;;;16.92;90.43;100838.88;4997013;28;20595;-83
2022/09/13 04:25:29;;;;;;;16.40;11.43;;;;;;;16.91;90.03;100846.28;4996712;28;20706;-83
2022/09/13 04:27:57;;;;;;;14.30;11.00;;;;;;;16.89;89.36;100845.72;4997314;28;20041;-83
2022/09/13 04:30:22;;;;;;;14.23;10.90;;;;;;;16.91;89.03;100840.81;4998248;28;20026;-83
2022/09/13 04:32:48;;;;;;;15.67;10.80;;;;;;;16.91;88.90;100834.50;4997729;28;20324;-83
2022/09/13 04:35:15;;;;;;;15.40;11.50;;;;;;;16.94;88.69;100834.81;4963887;28;20037;-85
2022/09/13 04:37:41;;;;;;;15.27;11.10;;;;;;;16.93;88.70;100832.34;4997989;28;20037;-84
2022/09/13 04:40:07;;;;;;;16.47;10.57;;;;;;;16.94;90.28;100834.00;4978866;28;20042;-84
2022/09/13 04:42:33;;;;;;;16.17;11.83;;;;;;;16.93;89.46;100840.53;4996138;28;20045;-83
2022/09/13 04:44:58;;;;;;;16.50;11.63;;;;;;;16.96;88.23;100846.34;4980701;28;20112;-84
2022/09/13 04:47:24;;;;;;;15.67;11.27;;;;;;;16.97;88.42;100849.91;4997728;28;20203;-85
2022/09/13 04:49:49;;;;;;;15.83;11.03;;;;;;;16.97;88.82;100845.28;4998312;28;20042;-84
2022/09/13 04:52:14;;;;;;;15.23;11.10;;;;;;;16.97;88.67;100853.47;4997495;28;20045;-83
2022/09/13 04:54:40;;;;;;;15.27;11.13;;;;;;;16.99;88.61;100848.56;4997952;28;20038;-83
2022/09/13 04:57:08;;;;;;;18.37;11.00;;;;;;;16.98;88.69;100846.91;4998167;28;20542;-83
2022/09/13 04:59:33;;;;;;;16.53;11.13;;;;;;;17.00;88.94;100844.75;4997994;28;20034;-83
2022/09/13 05:01:59;;;;;;;14.47;10.87;;;;;;;17.05;89.15;100849.44;4998085;28;20042;-83
2022/09/13 05:04:30;;;;;;;14.80;11.20;;;;;;;16.99;89.92;100845.81;4996697;28;20037;-84
2022/09/13 05:06:57;;;;;;;16.80;11.63;;;;;;;17.00;89.96;100852.16;4997628;28;20572;-83
2022/09/13 05:09:23;;;;;;;14.60;11.03;;;;;;;16.95;90.22;100841.94;4997045;28;20506;-84
2022/09/13 05:11:48;;;;;;;13.47;10.53;;;;;;;16.98;90.81;100855.13;4997726;28;20034;-85
2022/09/13 05:14:14;;;;;;;15.93;11.13;;;;;;;16.96;91.27;100851.81;4995237;28;20058;-84
2022/09/13 05:16:39;;;;;;;15.33;11.47;;;;;;;16.94;91.41;100851.22;4995688;28;20796;-85
2022/09/13 05:19:05;;;;;;;16.63;11.30;;;;;;;16.99;90.72;100855.97;4997375;28;20498;-84
2022/09/13 05:21:30;;;;;;;18.13;11.83;;;;;;;16.95;91.29;100852.88;4979626;28;20128;-85
2022/09/13 05:23:56;;;;;;;14.47;11.00;;;;;;;16.97;91.57;100858.97;4997154;28;20037;-84
2022/09/13 05:26:24;;;;;;;18.90;12.03;;;;;;;16.90;92.26;100869.25;4997487;28;20478;-84
2022/09/13 05:28:50;;;;;;;17.07;11.87;;;;;;;16.92;90.76;100856.16;4996290;28;20179;-84
2022/09/13 05:31:18;;;;;;;15.17;11.30;;;;;;;16.93;92.29;100854.22;4996821;28;20124;-84
2022/09/13 05:33:46;;;;;;;16.90;11.23;;;;;;;16.91;92.13;100853.66;4996344;28;20623;-85
2022/09/13 05:36:11;;;;;;;16.30;11.77;;;;;;;16.92;92.16;100861.63;4997015;28;20033;-86
2022/09/13 05:38:56;;;;;;;14.90;11.33;;;;;;;16.92;90.96;100860.78;4978539;28;20132;-84
2022/09/13 05:41:21;;;;;;;18.80;12.43;;;;;;;16.92;92.06;100858.03;4996681;28;20048;-84
2022/09/13 05:43:47;;;;;;;16.60;12.00;;;;;;;16.93;91.04;100863.28;4977339;28;20041;-84
2022/09/13 05:46:15;;;;;;;16.70;11.50;;;;;;;16.97;91.12;100869.06;4997027;28;20084;-84
2022/09/13 05:48:41;;;;;;;16.87;11.97;;;;;;;16.97;90.40;100867.16;4997007;28;20041;-83
2022/09/13 05:51:10;;;;;;;17.63;11.93;;;;;;;16.94;91.41;100856.72;4997650;28;20041;-83
2022/09/13 05:53:38;;;;;;;15.33;11.60;;;;;;;17.00;91.47;100863.09;4977887;28;20544;-83
2022/09/13 05:56:04;;;;;;;17.40;11.83;;;;;;;17.02;91.80;100855.44;4996684;28;20042;-84
2022/09/13 05:58:30;;;;;;;18.93;12.10;;;;;;;17.03;91.02;100860.66;4996372;28;20088;-84
2022/09/13 06:00:56;;;;;;;19.10;12.17;;;;;;;17.03;90.60;100857.91;4996756;28;20041;-83
2022/09/13 06:03:22;;;;;;;19.63;13.43;;;;;;;17.06;91.20;100853.03;4995658;28;20034;-83
2022/09/13 06:05:48;;;;;;;18.63;12.53;;;;;;;17.04;90.64;100848.63;4996449;28;20038;-83
2022/09/13 06:08:14;;;;;;;19.13;12.47;;;;;;;17.10;91.67;100857.72;4996036;28;20375;-83
2022/09/13 06:10:39;;;;;;;17.73;12.40;;;;;;;17.08;90.99;100859.06;4995589;28;20040;-84
2022/09/13 06:13:05;;;;;;;17.90;12.73;;;;;;;17.13;90.25;100859.13;4971543;28;20092;-84
2022/09/13 06:15:30;;;;;;;17.57;12.80;;;;;;;17.16;90.41;100862.19;4996708;28;20437;-84
2022/09/13 06:17:56;;;;;;;20.30;13.07;;;;;;;17.19;90.38;100861.69;4978872;28;20478;-83
2022/09/13 06:20:21;;;;;;;18.40;12.77;;;;;;;17.21;90.50;100867.72;4995529;28;20397;-84
2022/09/13 06:22:47;;;;;;;17.73;12.67;;;;;;;17.23;90.55;100864.75;4994855;28;20048;-84
2022/09/13 06:25:13;;;;;;;18.77;12.23;;;;;;;17.25;90.94;100873.50;4995717;28;20490;-84
2022/09/13 06:27:38;;;;;;;20.90;12.60;;;;;;;17.29;90.71;100866.44;4996289;28;20041;-83
2022/09/13 06:30:04;;;;;;;19.67;12.20;;;;;;;17.30;90.05;100870.84;4995677;28;20045;-84
2022/09/13 06:32:29;;;;;;;21.77;12.93;;;;;;;17.29;90.34;100871.91;4996121;28;20053;-83
2022/09/13 06:34:55;;;;;;;21.00;13.10;;;;;;;17.40;92.95;100863.81;4996009;28;20599;-85
2022/09/13 06:37:20;;;;;;;20.73;13.13;;;;;;;17.35;94.07;100853.63;4978761;28;20046;-85
2022/09/13 06:39:46;;;;;;;19.77;13.27;;;;;;;17.43;94.23;100852.34;4977611;28;20478;-83
2022/09/13 06:42:11;;;;;;;21.47;12.53;;;;;;;17.50;93.93;100855.69;4994150;28;20200;-84
2022/09/13 06:44:37;;;;;;;27.20;14.30;;;;;;;17.57;92.33;100863.72;4996164;28;20049;-83
2022/09/13 06:47:02;;;;;;;23.53;14.17;;;;;;;17.60;91.64;100854.97;4978442;28;20164;-83
2022/09/13 06:49:30;;;;;;;23.43;14.23;;;;;;;17.64;90.65;100856.09;4995870;28;20042;-84
2022/09/13 06:51:55;;;;;;;24.77;15.53;;;;;;;17.63;92.03;100851.75;4996162;28;20083;-83
2022/09/13 06:54:21;;;;;;;26.23;15.10;;;;;;;17.60;94.27;100850.34;4977627;28;20030;-84
2022/09/13 06:56:46;;;;;;;22.37;14.13;;;;;;;17.76;94.49;100855.97;4996109;28;20145;-84
2022/09/13 06:59:11;;;;;;;22.90;15.90;;;;;;;17.84;92.49;100852.75;4995258;28;20099;-83
2022/09/13 07:01:44;;;;;;;24.37;15.40;;;;;;;18.00;89.87;100860.03;4978680;28;20061;-83
2022/09/13 07:04:12;;;;;;;21.07;15.27;;;;;;;18.13;90.15;100852.47;4995213;28;20038;-84
2022/09/13 07:06:41;;;;;;;22.33;15.43;;;;;;;18.25;89.89;100852.28;4994217;28;20476;-84
2022/09/13 07:09:10;;;;;;;23.55;15.48;;;;;;;18.36;88.45;100854.84;4995027;28;20038;-85
2022/09/13 07:11:38;;;;;;;28.15;15.70;;;;;;;18.50;87.16;100860.69;4995867;28;20034;-84
2022/09/13 07:14:05;;;;;;;26.47;15.73;;;;;;;18.59;86.40;100860.19;4995133;28;20064;-85
2022/09/13 07:16:32;;;;;;;25.98;15.73;;;;;;;18.70;86.72;100864.66;4995486;28;20566;-84
2022/09/13 07:19:07;;;;;;;27.13;16.55;;;;;;;18.65;88.53;100865.44;4994801;28;20526;-86
2022/09/13 07:21:34;;;;;;;25.75;18.13;;;;;;;18.79;87.54;100859.47;4994584;28;20070;-87
2022/09/13 07:23:59;;;;;;;26.42;18.85;;;;;;;18.73;88.73;100855.88;4995320;28;20052;-86
2022/09/13 07:26:26;;;;;;;25.27;18.67;;;;;;;18.78;88.50;100860.56;4978402;28;20326;-85
2022/09/13 07:28:54;;;;;;;23.67;17.73;;;;;;;18.91;87.53;100851.88;4995375;28;21488;-85
2022/09/13 07:31:26;;;;;;;22.60;18.35;;;;;;;18.91;89.47;100862.03;4995604;28;20121;-86
2022/09/13 07:33:56;;;;;;;24.95;18.80;;;;;;;18.98;87.78;100868.91;4994927;28;20033;-86
2022/09/13 07:36:23;;;;;;;22.60;17.77;;;;;;;19.06;87.34;100871.16;4995377;28;20172;-86
2022/09/13 07:38:49;;;;;;;23.88;18.05;;;;;;;19.13;88.22;100864.59;4976242;28;20129;-86
2022/09/13 07:41:17;;;;;;;24.17;17.75;;;;;;;19.26;86.37;100874.25;4998275;28;20038;-86
2022/09/13 07:43:42;;;;;;;24.30;17.65;;;;;;;19.35;87.82;100875.38;4999143;28;20371;-87
2022/09/13 07:46:20;;;;;;;23.67;19.15;;;;;;;19.54;87.43;100881.19;4980938;28;20049;-86
2022/09/13 07:48:46;;;;;;;24.35;19.27;;;;;;;19.58;86.63;100890.56;4998986;28;20546;-86
2022/09/13 07:51:17;;;;;;;23.40;19.73;;;;;;;19.77;87.15;100895.53;4997797;28;20069;-86
2022/09/13 07:53:44;;;;;;;26.15;20.42;;;;;;;19.76;85.18;100888.38;4998873;28;20790;-86
2022/09/13 07:56:14;;;;;;;25.50;20.48;;;;;;;19.86;84.32;100888.44;4999183;28;20440;-86
2022/09/13 07:58:42;;;;;;;26.20;20.63;;;;;;;19.94;85.22;100885.16;4999154;28;20639;-87
2022/09/13 08:01:12;;;;;;;25.20;20.45;;;;;;;20.15;85.56;100896.97;4997600;28;20113;-86
2022/09/13 08:03:37;;;;;;;24.50;19.85;;;;;;;20.22;85.12;100894.78;4997708;28;20140;-85
2022/09/13 08:06:04;;;;;;;26.65;20.38;;;;;;;20.41;84.67;100895.06;4998659;28;20048;-86
2022/09/13 08:08:30;;;;;;;26.33;21.73;;;;;;;20.51;83.92;100887.88;4997697;28;20038;-86
2022/09/13 08:10:56;;;;;;;26.50;21.58;;;;;;;20.58;83.44;100893.94;4976398;28;20034;-86
2022/09/13 08:13:22;;;;;;;27.48;21.77;;;;;;;20.65;84.08;100886.19;4964617;28;20069;-86
2022/09/13 08:15:48;;;;;;;26.10;21.83;;;;;;;20.71;84.61;100893.38;4998394;28;20046;-87
2022/09/13 08:18:14;;;;;;;27.95;22.23;;;;;;;20.84;82.56;100893.91;4998679;28;20448;-86
2022/09/13 08:20:40;;;;;;;29.23;22.33;;;;;;;21.03;83.12;100894.91;4996489;28;20032;-87
2022/09/13 08:23:06;;;;;;;28.50;23.10;;;;;;;21.14;81.73;100894.91;4998186;28;20046;-87
2022/09/13 08:25:33;;;;;;;28.38;22.45;;;;;;;21.42;80.19;100898.91;4998451;28;20056;-87
2022/09/13 08:28:09;;;;;;;28.55;23.58;;;;;;;21.38;80.23;100900.56;4998800;28;20038;-89
2022/09/13 08:30:36;;;;;;;27.33;21.98;;;;;;;21.67;78.33;100897.94;4997979;28;20037;-87
2022/09/13 08:33:03;;;;;;;28.25;23.70;;;;;;;21.70;78.35;100904.81;4998854;28;20147;-88
2022/09/13 08:35:29;;;;;;;28.98;23.92;;;;;;;21.72;78.94;100905.38;4997621;28;20526;-88
2022/09/13 08:37:55;;;;;;;31.45;23.38;;;;;;;21.83;77.95;100906.13;4996317;28;20052;-88
2022/09/13 08:40:22;;;;;;;28.92;24.38;;;;;;;21.96;77.83;100910.16;4979544;28;20041;-86
2022/09/13 08:43:10;;;;;;;28.20;23.40;;;;;;;22.14;78.41;100911.41;4998552;28;20549;-88
2022/09/13 08:45:35;;;;;;;27.58;22.52;;;;;;;22.01;77.68;100908.19;4997709;28;20120;-89
2022/09/13 08:48:12;;;;;;;27.83;23.08;;;;;;;22.08;77.84;100916.13;4998445;28;20036;-87
2022/09/13 08:50:39;;;;;;;26.52;22.48;;;;;;;22.07;76.09;100912.56;4996183;28;20702;-87
2022/09/13 08:53:28;;;;;;;25.65;21.00;;;;;;;22.48;77.68;100914.19;4978612;28;20040;-86
2022/09/13 08:56:09;;;;;;;26.92;22.30;;;;;;;22.48;77.91;100914.19;4997700;28;20161;-88
2022/09/13 08:59:06;;;;;;;28.55;21.55;;;;;;;22.68;76.84;100915.09;4998250;28;20045;-87
2022/09/13 09:01:47;;;;;;;25.33;21.45;;;;;;;22.71;75.22;100917.25;4997591;28;20033;-85
2022/09/13 09:04:21;;;;;;;26.45;21.23;;;;;;;22.84;76.49;100915.75;4997633;28;20041;-87
2022/09/13 09:06:46;;;;;;;25.83;20.77;;;;;;;22.82;77.20;100913.28;4997925;28;20041;-87
2022/09/13 09:09:17;;;;;;;24.52;20.67;;;;;;;22.99;74.92;100909.25;4997074;28;20104;-87
2022/09/13 09:12:10;;;;;;;26.40;20.88;;;;;;;23.24;74.59;100906.19;4997766;28;20033;-87
2022/09/13 09:14:43;;;;;;;23.95;19.58;;;;;;;23.26;73.11;100903.94;4997461;28;20113;-86
2022/09/13 09:17:28;;;;;;;23.90;19.63;;;;;;;23.53;73.59;100904.44;4996875;28;20061;-87
2022/09/13 09:20:08;;;;;;;22.73;19.15;;;;;;;23.84;72.43;100892.91;4997055;28;20030;-85
2022/09/13 09:22:35;;;;;;;23.50;18.35;;;;;;;23.76;69.62;100891.66;4997704;28;20037;-85
2022/09/13 09:25:00;;;;;;;22.35;16.85;;;;;;;24.06;70.33;100887.59;4995951;28;20100;-86
2022/09/13 09:27:29;;;;;;;22.17;17.25;;;;;;;24.25;69.75;100898.63;4995953;28;20043;-86
2022/09/13 09:29:59;;;;;;;19.25;15.13;;;;;;;24.24;68.25;100893.41;4996643;28;20108;-84
2022/09/13 09:32:50;;;;;;;19.65;15.52;;;;;;;24.68;69.41;100896.78;4996990;28;20062;-87
2022/09/13 09:35:36;;;;;;;20.45;17.05;;;;;;;24.53;68.76;100895.91;4996046;28;20042;-87
2022/09/13 09:38:26;;;;;;;21.65;16.52;;;;;;;24.40;70.22;100894.78;4997257;28;20549;-86
2022/09/13 09:40:52;;;;;;;21.45;16.67;;;;;;;24.66;67.35;100888.78;4996999;28;20042;-87
2022/09/13 09:43:47;;;;;;;20.50;16.70;;;;;;;24.54;68.57;100893.97;4996805;28;20044;-86
2022/09/13 09:46:14;;;;;;;20.23;16.20;;;;;;;24.38;67.69;100894.25;4994920;28;20485;-88
2022/09/13 09:49:00;;;;;;;21.33;15.88;;;;;;;24.37;68.08;100892.63;4997237;28;20041;-86
2022/09/13 09:51:27;;;;;;;19.40;16.20;;;;;;;24.18;68.34;100894.59;4969610;28;20069;-85
2022/09/13 09:54:01;;;;;;;18.33;14.40;;;;;;;24.25;68.71;100901.41;4996750;28;20390;-85
2022/09/13 09:56:32;;;;;;;20.52;15.23;;;;;;;23.92;69.92;100893.09;4996721;28;20414;-87
2022/09/13 09:58:57;;;;;;;17.90;13.75;;;;;;;23.90;69.98;100894.50;4996294;28;20529;-85
2022/09/13 10:01:31;;;;;;;17.00;12.70;;;;;;;24.04;69.50;100900.09;4995419;28;20037;-84
2022/09/13 10:04:11;;;;;;;16.42;11.88;;;;;;;24.14;69.22;100891.63;4997304;28;20045;-88
2022/09/13 10:06:39;;;;;;;16.35;11.80;;;;;;;23.87;70.84;100893.13;4995993;28;20536;-87
2022/09/13 10:09:25;;;;;;;16.23;11.75;;;;;;;24.08;71.96;100893.66;4997192;28;20137;-85
2022/09/13 10:11:58;;;;;;;15.13;11.73;;;;;;;24.02;70.90;100894.88;4996496;28;20046;-85
2022/09/13 10:14:48;;;;;;;17.00;10.38;;;;;;;24.16;69.88;100894.91;4997007;28;20485;-88
2022/09/13 10:17:22;;;;;;;12.38;9.18;;;;;;;24.03;70.46;100888.22;4996765;28;21359;-85
2022/09/13 10:20:34;;;;;;;14.13;9.52;;;;;;;24.29;71.12;100885.00;4996356;28;20393;-86
2022/09/13 10:23:14;;;;;;;12.70;8.68;;;;;;;24.33;67.58;100886.03;4996724;28;20038;-85
2022/09/13 10:25:43;;;;;;;15.82;9.00;;;;;;;24.57;67.96;100879.50;4996275;28;20044;-86
2022/09/13 10:28:18;;;;;;;12.52;8.77;;;;;;;24.43;69.04;100877.53;4996490;28;20348;-86
2022/09/13 10:30:48;;;;;;;14.63;10.27;;;;;;;24.20;68.43;100876.56;4996865;28;20042;-84
2022/09/13 10:33:41;;;;;;;15.52;9.80;;;;;;;24.20;70.21;100870.22;4996290;28;20179;-84
2022/09/13 10:36:17;;;;;;;15.25;10.13;;;;;;;23.87;70.61;100876.53;4987756;28;20060;-85
2022/09/13 10:38:59;;;;;;;14.30;9.50;;;;;;;24.04;71.58;100877.94;4995889;28;20211;-86
2022/09/13 10:41:27;;;;;;;13.57;9.90;;;;;;;24.23;70.95;100873.19;4994951;28;20034;-85
2022/09/13 10:43:58;;;;;;;11.73;8.52;;;;;;;24.59;68.99;100882.81;4996559;28;20041;-86
2022/09/13 10:46:25;;;;;;;11.90;8.60;;;;;;;24.44;65.64;100879.19;4977954;28;20633;-86
2022/09/13 10:48:54;;;;;;;11.98;8.60;;;;;;;24.65;65.75;100859.44;4996236;28;20073;-83
2022/09/13 10:51:37;;;;;;;12.75;8.45;;;;;;;24.80;65.15;100874.94;4995688;28;20108;-85
2022/09/13 10:54:29;;;;;;;12.85;9.50;;;;;;;24.91;67.00;100865.31;4996369;28;20030;-85
2022/09/13 10:56:55;;;;;;;12.20;8.85;;;;;;;24.76;65.68;100874.75;4968099;28;20402;-86
2022/09/13 10:59:32;;;;;;;12.68;8.20;;;;;;;24.75;66.66;100873.09;4995925;28;20041;-85
2022/09/13 11:02:03;;;;;;;12.90;8.25;;;;;;;24.60;66.04;100876.13;4995780;28;20045;-85
2022/09/13 11:04:55;;;;;;;11.80;8.95;;;;;;;24.56;67.23;100877.88;4995872;28;20076;-85
2022/09/13 11:07:46;;;;;;;14.43;8.68;;;;;;;24.28;68.38;100872.28;4995265;28;20050;-84
2022/09/13 11:10:18;;;;;;;10.50;8.35;;;;;;;23.86;68.30;100866.56;4977402;28;20033;-84
2022/09/13 11:13:06;;;;;;;14.15;9.23;;;;;;;24.03;68.67;100863.31;4996661;28;20494;-84
2022/09/13 11:15:50;;;;;;;14.48;8.95;;;;;;;23.82;70.28;100856.44;4986801;28;20466;-85
2022/09/13 11:21:43;;;;;;;13.20;8.60;;;;;;;24.04;68.69;100856.63;4999148;28;19978;-85
2022/09/13 11:24:39;;;;;;;13.48;8.80;;;;;;;23.94;70.18;100854.03;4999667;28;20029;-86
2022/09/13 11:27:08;;;;;;;12.43;8.25;;;;;;;23.94;69.93;100852.09;5000125;28;20042;-85
2022/09/13 11:29:45;;;;;;;13.00;8.43;;;;;;;23.94;69.28;100852.09;4982053;28;20228;-85
2022/09/13 11:32:23;;;;;;;12.27;7.20;;;;;;;23.88;69.45;100850.53;4981719;28;20042;-85
2022/09/13 11:35:19;;;;;;;10.57;6.70;;;;;;;23.97;70.79;100842.38;4999785;28;20152;-85
2022/09/13 11:38:05;;;;;;;11.38;8.48;;;;;;;23.97;70.95;100838.78;4999713;28;20556;-86
2022/09/13 11:40:42;;;;;;;11.98;9.43;;;;;;;24.07;70.13;100835.81;4999040;28;20445;-85